Time;durP1;ratioP1;P1;durP2;ratioP2;P2;SDS_P1;SDS_P2;PMS_P1;PMS_P2;Temp;Humidity;BMP_temperature;BMP_pressure;BME280_temperature;BME280_humidity;BME280_pressure;Samples;Min_cycle;Max_cycle;Signal;HPM_P1;HPM_P2
2022/09/14 00:01:11;;;;;;;;;16.67;16.67;;;;;22.23;100.00;100266.28;5063495;28;45307;-74
2022/09/14 00:03:37;;;;;;;;;17.67;17.67;;;;;22.22;100.00;100257.34;5062208;28;47705;-75
2022/09/14 00:06:05;;;;;;;;;22.33;19.33;;;;;22.20;100.00;100256.50;5060242;28;45370;-74
2022/09/14 00:08:30;;;;;;;;;22.67;19.67;;;;;22.21;100.00;100254.69;5040676;28;45427;-75
2022/09/14 00:10:56;;;;;;;;;25.00;22.33;;;;;22.18;100.00;100239.59;5051640;28;45442;-74
2022/09/14 00:13:21;;;;;;;;;18.67;16.67;;;;;22.17;100.00;100235.16;5046434;28;59567;-74
2022/09/14 00:15:47;;;;;;;;;22.67;21.67;;;;;22.19;100.00;100241.34;5055034;28;61200;-76
2022/09/14 00:18:12;;;;;;;;;20.67;20.67;;;;;22.19;100.00;100224.31;5053697;28;45236;-75
2022/09/14 00:20:38;;;;;;;;;22.00;20.00;;;;;22.17;100.00;100218.16;5058079;28;45237;-74
2022/09/14 00:23:04;;;;;;;;;20.33;20.00;;;;;22.15;100.00;100215.53;5054700;28;46563;-74
2022/09/14 00:25:29;;;;;;;;;22.33;21.67;;;;;22.16;100.00;100211.91;5058044;28;45324;-74
2022/09/14 00:27:56;;;;;;;;;21.00;20.00;;;;;22.13;100.00;100214.72;5037321;28;45468;-74
2022/09/14 00:30:22;;;;;;;;;19.33;19.33;;;;;22.12;100.00;100223.75;5056941;28;45281;-75
2022/09/14 00:32:48;;;;;;;;;19.33;19.33;;;;;22.14;100.00;100223.66;5058683;28;47384;-74
2022/09/14 00:35:13;;;;;;;;;20.00;20.00;;;;;22.11;100.00;100205.00;5058454;28;45431;-74
2022/09/14 00:37:38;;;;;;;;;18.67;17.33;;;;;22.11;100.00;100203.19;5057958;28;45439;-75
2022/09/14 00:40:05;;;;;;;;;15.00;15.00;;;;;22.12;100.00;100204.06;5057301;28;59809;-75
2022/09/14 00:42:30;;;;;;;;;16.67;15.00;;;;;22.12;100.00;100209.44;5058392;28;46638;-75
2022/09/14 00:45:07;;;;;;;;;13.67;11.33;;;;;22.08;100.00;100200.59;5057144;28;60790;-74
2022/09/14 00:47:33;;;;;;;;;14.67;13.00;;;;;22.07;100.00;100209.59;5058308;28;45408;-75
2022/09/14 00:50:00;;;;;;;;;11.33;11.33;;;;;22.00;100.00;100194.72;5058620;28;45243;-76
2022/09/14 00:52:29;;;;;;;;;13.33;12.00;;;;;22.04;100.00;100192.72;5057957;28;46488;-74
2022/09/14 00:54:58;;;;;;;;;8.00;8.00;;;;;22.00;100.00;100186.66;5057678;28;45470;-75
2022/09/14 00:57:24;;;;;;;;;12.00;12.00;;;;;21.97;100.00;100176.91;5058078;28;45313;-73
2022/09/14 00:59:51;;;;;;;;;16.00;14.67;;;;;21.97;100.00;100163.44;5039178;28;45511;-74
2022/09/14 01:02:20;;;;;;;;;15.00;15.00;;;;;21.93;100.00;100169.03;5036724;28;46813;-73
2022/09/14 01:04:45;;;;;;;;;18.67;18.33;;;;;21.93;100.00;100172.59;5052451;28;45403;-75
2022/09/14 01:07:38;;;;;;;;;23.67;20.67;;;;;21.90;100.00;100162.00;5058347;28;45376;-75
2022/09/14 01:10:39;;;;;;;;;21.33;21.33;;;;;21.90;100.00;100158.44;5056498;28;45391;-74
2022/09/14 01:13:32;;;;;;;;;18.67;18.67;;;;;21.90;100.00;100143.19;5057773;28;47379;-76
2022/09/14 01:16:10;;;;;;;;;18.33;18.33;;;;;21.90;100.00;100132.44;5058185;28;45317;-74
2022/09/14 01:18:43;;;;;;;;;19.33;19.33;;;;;21.88;100.00;100128.06;5074530;28;45414;-74
2022/09/14 01:21:32;;;;;;;;;17.67;16.67;;;;;21.91;100.00;100131.50;5059870;28;45410;-73
2022/09/14 01:24:04;;;;;;;;;24.67;20.00;;;;;21.90;100.00;100145.88;5070474;28;46455;-75
2022/09/14 01:26:54;;;;;;;;;17.00;15.67;;;;;21.90;100.00;100143.19;5059500;28;45336;-74
2022/09/14 01:29:25;;;;;;;;;20.00;18.00;;;;;21.91;100.00;100147.63;5077829;28;45494;-74
2022/09/14 01:31:55;;;;;;;;;17.67;16.67;;;;;21.88;100.00;100120.88;5077959;28;45614;-74
2022/09/14 01:34:30;;;;;;;;;17.67;16.00;;;;;21.88;100.00;100118.19;5077556;28;46428;-75
2022/09/14 01:37:03;;;;;;;;;16.33;16.33;;;;;21.89;100.00;100109.19;5059356;28;45400;-75
2022/09/14 01:39:30;;;;;;;;;14.00;13.00;;;;;21.89;100.00;100111.88;5077808;28;45391;-74
2022/09/14 01:41:57;;;;;;;;;11.00;11.00;;;;;21.88;100.00;100111.94;5077412;28;45566;-73
2022/09/14 01:44:31;;;;;;;;;13.33;13.33;;;;;21.88;100.00;100095.81;5058531;28;56538;-74
2022/09/14 01:47:22;;;;;;;;;14.00;11.00;;;;;21.86;100.00;100121.91;5059625;28;45365;-75
2022/09/14 01:49:51;;;;;;;;;11.00;8.00;;;;;21.84;100.00;100143.47;5077669;28;45340;-75
2022/09/14 01:52:26;;;;;;;;;11.33;11.33;;;;;21.87;100.00;100143.31;5077994;28;45527;-75
2022/09/14 01:54:56;;;;;;;;;7.00;7.00;;;;;21.87;100.00;100131.69;5077672;28;46824;-74
2022/09/14 01:57:32;;;;;;;;;8.00;8.00;;;;;21.81;100.00;100132.84;5059424;28;45333;-75
2022/09/14 02:00:09;;;;;;;;;7.00;7.00;;;;;21.80;100.00;100128.44;5059059;28;45343;-74
2022/09/14 02:02:45;;;;;;;;;7.00;5.67;;;;;21.76;100.00;100116.06;5059136;28;45321;-75
2022/09/14 02:05:38;;;;;;;;;6.33;6.33;;;;;21.74;100.00;100098.28;5077231;28;45755;-76
2022/09/14 02:08:03;;;;;;;;;9.00;8.67;;;;;21.73;100.00;100113.50;5056996;28;45408;-73
2022/09/14 02:10:29;;;;;;;;;7.33;6.00;;;;;21.71;100.00;100129.72;5074756;28;45252;-74
2022/09/14 02:12:54;;;;;;;;;7.33;7.00;;;;;21.71;100.00;100135.09;5077694;28;45300;-73
2022/09/14 02:15:20;;;;;;;;;8.00;5.00;;;;;21.70;100.00;100129.81;5076526;28;70767;-74
2022/09/14 02:17:46;;;;;;;;;5.67;5.00;;;;;21.64;100.00;100141.69;5072023;28;45303;-75
2022/09/14 02:20:20;;;;;;;;;11.00;6.00;;;;;21.58;100.00;100136.63;5056628;28;57698;-74
2022/09/14 02:22:45;;;;;;;;;7.00;7.00;;;;;21.55;100.00;100123.31;5056180;28;45244;-74
2022/09/14 02:25:11;;;;;;;;;8.00;8.00;;;;;21.58;100.00;100133.06;5056741;28;46501;-74
2022/09/14 02:27:36;;;;;;;;;8.00;7.67;;;;;21.56;100.00;100122.34;5056827;28;45338;-74
2022/09/14 02:30:02;;;;;;;;;8.67;8.67;;;;;21.55;100.00;100127.81;5054495;28;60547;-73
2022/09/14 02:33:02;;;;;;;;;7.00;4.67;;;;;21.55;100.00;100157.34;5054801;28;45356;-73
2022/09/14 02:35:39;;;;;;;;;7.00;7.00;;;;;21.53;100.00;100165.50;5022632;28;46549;-74
2022/09/14 02:38:11;;;;;;;;;9.67;7.00;;;;;21.53;100.00;100160.13;5055261;28;45368;-74
2022/09/14 02:40:42;;;;;;;;;8.00;7.00;;;;;21.50;100.00;100154.00;5055574;28;45533;-75
2022/09/14 02:43:40;;;;;;;;;8.00;8.00;;;;;21.51;100.00;100142.31;5052170;28;45357;-75
2022/09/14 02:46:26;;;;;;;;;6.67;5.67;;;;;21.52;100.00;100161.06;5056437;28;47441;-73
2022/09/14 02:49:03;;;;;;;;;5.00;5.00;;;;;21.51;100.00;100159.31;5045387;28;45563;-75
2022/09/14 02:51:46;;;;;;;;;9.00;7.33;;;;;21.50;100.00;100154.88;5055604;28;45363;-73
2022/09/14 02:54:18;;;;;;;;;9.00;8.00;;;;;21.50;100.00;100149.50;5055782;28;45424;-75
2022/09/14 02:56:43;;;;;;;;;7.00;7.00;;;;;21.50;100.00;100141.44;5056063;28;47319;-74
2022/09/14 02:59:09;;;;;;;;;8.00;8.00;;;;;21.47;100.00;100136.22;5056377;28;45239;-74
2022/09/14 03:01:34;;;;;;;;;7.00;7.00;;;;;21.50;100.00;100141.44;5056512;28;45464;-74
2022/09/14 03:04:00;;;;;;;;;8.00;8.00;;;;;21.48;100.00;100139.78;5056639;28;45215;-73
2022/09/14 03:06:25;;;;;;;;;10.67;7.67;;;;;21.50;100.00;100143.25;5056473;28;46324;-75
2022/09/14 03:08:50;;;;;;;;;6.67;6.67;;;;;21.47;100.00;100133.53;5056397;28;45417;-75
2022/09/14 03:11:16;;;;;;;;;8.33;6.67;;;;;21.47;100.00;100138.91;5056511;28;45387;-74
2022/09/14 03:13:41;;;;;;;;;9.67;6.67;;;;;21.49;100.00;100136.16;5055478;28;64166;-74
2022/09/14 03:16:09;;;;;;;;;8.00;8.00;;;;;21.50;100.00;100137.88;5056259;28;46325;-73
2022/09/14 03:18:35;;;;;;;;;9.00;7.33;;;;;21.51;100.00;100145.00;5072310;28;45225;-75
2022/09/14 03:21:06;;;;;;;;;10.33;10.00;;;;;21.51;100.00;100143.19;5075552;28;45367;-74
2022/09/14 03:23:43;;;;;;;;;7.33;7.33;;;;;21.50;100.00;100151.31;5076370;28;45209;-73
2022/09/14 03:26:11;;;;;;;;;10.00;8.00;;;;;21.51;100.00;100137.81;5076196;28;46370;-73
2022/09/14 03:28:36;;;;;;;;;5.33;5.33;;;;;21.52;100.00;100136.91;5076359;28;45498;-75
2022/09/14 03:31:07;;;;;;;;;7.00;7.00;;;;;21.53;100.00;100143.13;5074642;28;45280;-76
2022/09/14 03:33:33;;;;;;;;;8.00;6.67;;;;;21.54;100.00;100144.88;5058285;28;45570;-74
2022/09/14 03:35:59;;;;;;;;;8.00;8.00;;;;;21.51;100.00;100136.94;5075237;28;68842;-75
2022/09/14 03:38:28;;;;;;;;;6.33;6.33;;;;;21.52;100.00;100126.16;5076039;28;45293;-74
2022/09/14 03:40:55;;;;;;;;;11.67;7.67;;;;;21.51;100.00;100123.50;5076300;28;45381;-74
2022/09/14 03:43:20;;;;;;;;;7.33;7.33;;;;;21.47;100.00;100121.94;5076321;28;45403;-74
2022/09/14 03:45:45;;;;;;;;;7.00;7.00;;;;;21.44;100.00;100113.03;5076232;28;45548;-75
2022/09/14 03:48:14;;;;;;;;;7.00;7.00;;;;;21.44;100.00;100113.03;5079194;28;53800;-74
2022/09/14 03:50:39;;;;;;;;;8.00;8.00;;;;;21.46;100.00;100115.66;5079506;28;45537;-75
2022/09/14 03:53:05;;;;;;;;;9.00;6.33;;;;;21.44;100.00;100115.72;5079758;28;45299;-73
2022/09/14 03:55:30;;;;;;;;;10.67;8.00;;;;;21.46;100.00;100121.03;5079340;28;45611;-74
2022/09/14 03:57:55;;;;;;;;;8.00;8.00;;;;;21.44;100.00;100130.97;5078787;28;64570;-76
2022/09/14 04:00:21;;;;;;;;;10.00;9.00;;;;;21.43;100.00;100138.16;5078884;28;59570;-74
2022/09/14 04:02:47;;;;;;;;;8.33;8.33;;;;;21.43;100.00;100138.16;5079857;28;45280;-74
2022/09/14 04:05:12;;;;;;;;;8.33;8.00;;;;;21.39;100.00;100147.28;5078511;28;46263;-74
2022/09/14 04:07:38;;;;;;;;;10.00;8.67;;;;;21.37;100.00;100141.13;5078614;28;45463;-75
2022/09/14 04:10:04;;;;;;;;;8.33;7.33;;;;;21.36;100.00;100130.44;5079055;28;45394;-76
2022/09/14 04:12:34;;;;;;;;;11.33;10.00;;;;;21.33;100.00;100131.47;5079413;28;45563;-74
2022/09/14 04:14:59;;;;;;;;;7.33;7.33;;;;;21.32;100.00;100132.41;5078660;28;46617;-76
2022/09/14 04:17:24;;;;;;;;;9.67;8.00;;;;;21.31;100.00;100137.84;5077620;28;64962;-76
2022/09/14 04:19:49;;;;;;;;;7.33;6.33;;;;;21.28;100.00;100122.69;5079408;28;45273;-74
2022/09/14 04:22:15;;;;;;;;;7.33;7.33;;;;;21.27;100.00;100114.72;5059563;28;62630;-76
2022/09/14 04:24:40;;;;;;;;;6.00;6.00;;;;;21.26;100.00;100113.00;5078259;28;64737;-73
2022/09/14 04:27:05;;;;;;;;;8.67;7.33;;;;;21.25;100.00;100108.53;5079246;28;45319;-74
2022/09/14 04:29:31;;;;;;;;;10.00;7.00;;;;;21.22;100.00;100096.13;5078990;28;45366;-74
2022/09/14 04:31:56;;;;;;;;;12.67;9.33;;;;;21.23;100.00;100102.38;5078961;28;45642;-75
2022/09/14 04:34:22;;;;;;;;;7.00;7.00;;;;;21.19;100.00;100098.94;5078795;28;46833;-74
2022/09/14 04:36:47;;;;;;;;;8.00;8.00;;;;;21.17;100.00;100098.16;5078016;28;65249;-73
2022/09/14 04:39:12;;;;;;;;;8.00;8.00;;;;;21.18;100.00;100095.38;5078447;28;60055;-75
2022/09/14 04:41:38;;;;;;;;;9.00;9.00;;;;;21.18;100.00;100099.88;5069189;28;45471;-74
2022/09/14 04:44:04;;;;;;;;;10.33;10.33;;;;;21.15;100.00;100091.97;5076617;28;46274;-75
2022/09/14 04:46:31;;;;;;;;;13.67;8.00;;;;;21.16;100.00;100093.72;5076663;28;45445;-74
2022/09/14 04:48:56;;;;;;;;;6.67;6.00;;;;;21.14;100.00;100104.50;5076276;28;45448;-75
2022/09/14 04:51:26;;;;;;;;;10.00;8.33;;;;;21.14;100.00;100109.00;5073178;28;45462;-74
2022/09/14 04:53:55;;;;;;;;;10.67;9.67;;;;;21.18;100.00;100107.94;5063337;28;47510;-72
2022/09/14 04:56:21;;;;;;;;;11.67;8.00;;;;;21.13;100.00;100093.84;5060802;28;45569;-72
2022/09/14 04:58:49;;;;;;;;;11.33;9.00;;;;;21.07;100.00;100095.00;5064479;28;45459;-72
2022/09/14 05:01:17;;;;;;;;;8.67;8.67;;;;;21.09;100.00;100105.66;5060795;28;45376;-73
2022/09/14 05:03:43;;;;;;;;;11.00;11.00;;;;;21.06;100.00;100101.31;5062316;28;45756;-72
2022/09/14 05:06:13;;;;;;;;;10.00;10.00;;;;;21.01;100.00;100100.63;5060281;28;45267;-72
2022/09/14 05:08:40;;;;;;;;;7.33;7.33;;;;;20.97;100.00;100074.00;5063046;28;45264;-73
2022/09/14 05:11:06;;;;;;;;;12.00;12.00;;;;;20.95;100.00;100076.75;5040212;28;45408;-73
2022/09/14 05:13:32;;;;;;;;;10.67;9.67;;;;;20.92;100.00;100080.41;5059209;28;46513;-71
2022/09/14 05:16:08;;;;;;;;;10.00;8.67;;;;;20.91;100.00;100077.81;5057168;28;45289;-72
2022/09/14 05:18:34;;;;;;;;;10.00;8.00;;;;;20.87;100.00;100066.34;5039253;28;45342;-71
2022/09/14 05:21:04;;;;;;;;;9.67;9.67;;;;;20.86;100.00;100061.91;5042254;28;45327;-71
2022/09/14 05:23:29;;;;;;;;;11.00;10.33;;;;;20.85;100.00;100062.84;5041776;28;45756;-71
2022/09/14 05:25:55;;;;;;;;;11.67;11.00;;;;;20.83;100.00;100058.50;5041698;28;66078;-72
2022/09/14 05:28:20;;;;;;;;;13.00;11.00;;;;;20.78;100.00;100057.84;5041857;28;45320;-72
2022/09/14 05:30:45;;;;;;;;;9.00;7.67;;;;;20.75;100.00;100053.47;5037446;28;45626;-72
2022/09/14 05:33:12;;;;;;;;;13.00;10.67;;;;;20.76;100.00;100054.31;5036432;28;71941;-71
2022/09/14 05:35:37;;;;;;;;;13.00;11.67;;;;;20.71;100.00;100054.53;5039206;28;45319;-72
2022/09/14 05:38:02;;;;;;;;;8.67;8.67;;;;;20.67;100.00;100052.94;5039514;28;45819;-72
2022/09/14 05:40:28;;;;;;;;;12.33;11.33;;;;;20.61;100.00;100043.34;5038836;28;61731;-72
2022/09/14 05:42:53;;;;;;;;;10.67;9.00;;;;;20.60;100.00;100043.38;5040896;28;55211;-71
2022/09/14 05:45:18;;;;;;;;;9.67;9.67;;;;;20.60;100.00;100048.75;5044239;28;45448;-71
2022/09/14 05:47:44;;;;;;;;;8.00;8.00;;;;;20.59;100.00;100047.88;5053777;28;60441;-72
2022/09/14 05:50:09;;;;;;;;;11.00;9.67;;;;;20.57;100.00;100059.63;5055988;28;45438;-72
2022/09/14 05:52:34;;;;;;;;;15.00;12.00;;;;;20.60;100.00;100070.19;5047278;28;66341;-71
2022/09/14 05:55:00;;;;;;;;;10.33;10.33;;;;;20.60;100.00;100062.16;5051501;28;58908;-72
2022/09/14 05:57:25;;;;;;;;;9.67;9.67;;;;;20.60;100.00;100068.41;5049926;28;46405;-71
2022/09/14 05:59:51;;;;;;;;;12.00;8.67;;;;;20.66;100.00;100080.66;5053220;28;54693;-72
2022/09/14 06:02:16;;;;;;;;;17.00;13.33;;;;;20.70;100.00;100082.28;5054885;28;46000;-75
2022/09/14 06:04:41;;;;;;;;;13.00;13.00;;;;;20.71;100.00;100085.84;5044812;28;65221;-74
2022/09/14 06:07:07;;;;;;;;;12.33;10.67;;;;;20.75;100.00;100103.56;5052157;28;58297;-76
2022/09/14 06:09:32;;;;;;;;;11.33;11.33;;;;;20.78;100.00;100107.00;5054722;28;45736;-75
2022/09/14 06:11:57;;;;;;;;;14.33;12.33;;;;;20.79;100.00;100092.63;5048950;28;47454;-74
2022/09/14 06:14:23;;;;;;;;;15.00;11.67;;;;;20.83;100.00;100096.94;5046528;28;45503;-73
2022/09/14 06:16:48;;;;;;;;;16.00;14.67;;;;;20.85;100.00;100088.81;5048495;28;45533;-75
2022/09/14 06:19:14;;;;;;;;;8.00;8.00;;;;;20.89;100.00;100093.13;5055127;28;45556;-74
2022/09/14 06:21:40;;;;;;;;;7.33;7.00;;;;;20.88;100.00;100091.38;5053438;28;47301;-76
2022/09/14 06:24:06;;;;;;;;;8.33;7.33;;;;;20.92;100.00;100096.53;5057329;28;45529;-74
2022/09/14 06:26:33;;;;;;;;;8.00;7.00;;;;;20.97;100.00;100108.88;5059400;28;45573;-75
2022/09/14 06:28:59;;;;;;;;;14.67;7.33;;;;;20.97;100.00;100106.19;5056721;28;45461;-74
2022/09/14 06:31:24;;;;;;;;;7.00;6.00;;;;;20.97;100.00;100106.19;5047434;28;46661;-72
2022/09/14 06:33:51;;;;;;;;;8.00;6.67;;;;;20.96;100.00;100093.72;5062739;28;60976;-72
2022/09/14 06:36:18;;;;;;;;;10.00;9.67;;;;;21.00;100.00;100096.22;5055882;28;45272;-75
2022/09/14 06:38:44;;;;;;;;;8.33;7.00;;;;;21.07;100.00;100089.63;5064319;28;45506;-73
2022/09/14 06:41:11;;;;;;;;;9.00;8.00;;;;;21.08;100.00;100080.63;5058183;28;46034;-73
2022/09/14 06:43:38;;;;;;;;;14.67;8.33;;;;;21.13;100.00;100085.78;5056245;28;45321;-74
2022/09/14 06:46:18;;;;;;;;;13.00;9.67;;;;;21.14;100.00;100076.78;5057255;28;45532;-73
2022/09/14 06:48:49;;;;;;;;;11.67;11.67;;;;;21.19;100.00;100082.81;5051330;28;45611;-74
2022/09/14 06:51:21;;;;;;;;;12.33;9.00;;;;;21.22;100.00;100085.38;5058031;28;47290;-72
2022/09/14 06:53:47;;;;;;;;;10.67;8.00;;;;;21.28;100.00;100097.66;5037734;28;45447;-72
2022/09/14 06:56:13;;;;;;;;;13.33;10.00;;;;;21.34;100.00;100092.91;5058217;28;45428;-72
2022/09/14 06:58:40;;;;;;;;;10.67;10.00;;;;;21.44;100.00;100093.38;5056297;28;45292;-73
2022/09/14 07:01:08;;;;;;;;;8.67;8.67;;;;;21.51;100.00;100099.34;5055116;28;45401;-75
2022/09/14 07:03:35;;;;;;;;;9.33;7.67;;;;;21.55;100.00;100107.19;5052078;28;45596;-74
2022/09/14 07:06:09;;;;;;;;;9.67;8.00;;;;;21.64;100.00;100109.47;5049117;28;45561;-72
2022/09/14 07:08:36;;;;;;;;;10.67;6.67;;;;;21.71;100.00;100100.16;5057911;28;47219;-73
2022/09/14 07:11:02;;;;;;;;;7.00;7.00;;;;;21.76;100.00;100102.63;5051037;28;46574;-74
2022/09/14 07:13:28;;;;;;;;;8.00;8.00;;;;;21.84;100.00;100091.50;5049725;28;45575;-73
2022/09/14 07:15:54;;;;;;;;;11.00;8.67;;;;;21.90;100.00;100102.00;5058170;28;45507;-73
2022/09/14 07:18:21;;;;;;;;;6.67;6.67;;;;;21.90;100.00;100104.69;5067567;28;45409;-72
2022/09/14 07:20:46;;;;;;;;;8.67;8.67;;;;;21.88;100.00;100106.56;5072720;27;46456;-72
2022/09/14 07:23:12;;;;;;;;;9.00;8.67;;;;;21.86;100.00;100103.09;5076807;28;45498;-74
2022/09/14 07:25:38;;;;;;;;;7.67;7.67;;;;;21.85;100.00;100104.03;5078436;28;45486;-74
2022/09/14 07:28:03;;;;;;;;;7.33;7.33;;;;;21.85;100.00;100090.59;5074776;28;45537;-75
2022/09/14 07:30:28;;;;;;;;;10.00;10.00;;;;;21.84;100.00;100102.25;5077135;28;64811;-72
2022/09/14 07:32:53;;;;;;;;;15.67;13.67;;;;;21.82;100.00;100114.91;5057658;28;65908;-73
2022/09/14 07:35:19;;;;;;;;;9.00;8.00;;;;;21.83;100.00;100122.03;5070267;28;60620;-72
2022/09/14 07:37:45;;;;;;;;;10.00;9.00;;;;;21.74;100.00;100114.41;5074674;28;45473;-73
2022/09/14 07:40:11;;;;;;;;;4.00;4.00;;;;;21.74;100.00;100109.03;5077234;28;46025;-73
2022/09/14 07:42:36;;;;;;;;;7.67;7.00;;;;;21.71;100.00;100105.53;5077580;28;45465;-72
2022/09/14 07:45:03;;;;;;;;;9.00;9.00;;;;;21.70;100.00;100105.63;5075497;28;45391;-72
2022/09/14 07:47:29;;;;;;;;;8.00;7.00;;;;;21.70;100.00;100111.00;5067158;28;45631;-73
2022/09/14 07:49:54;;;;;;;;;7.00;6.00;;;;;21.76;100.00;100115.22;5075068;28;46437;-72
2022/09/14 07:52:20;;;;;;;;;9.33;8.00;;;;;21.82;100.00;100123.84;5076102;28;45434;-73
2022/09/14 07:54:45;;;;;;;;;9.00;6.67;;;;;21.85;100.00;100114.78;5075707;28;45642;-73
2022/09/14 07:57:11;;;;;;;;;9.00;8.00;;;;;21.89;100.00;100119.94;5069741;28;46065;-73
2022/09/14 07:59:36;;;;;;;;;9.00;8.00;;;;;21.97;100.00;100128.50;5078412;27;68699;-72
2022/09/14 08:02:04;;;;;;;;;8.67;8.00;;;;;21.97;100.00;100122.25;5074987;28;45421;-73
2022/09/14 08:04:30;;;;;;;;;10.00;7.00;;;;;22.03;100.00;100131.84;5078198;28;45359;-72
2022/09/14 08:06:55;;;;;;;;;6.67;6.00;;;;;22.03;100.00;100126.47;5071964;28;45733;-72
2022/09/14 08:09:20;;;;;;;;;8.00;7.33;;;;;22.06;100.00;100129.91;5076202;28;64999;-72
2022/09/14 08:11:46;;;;;;;;;6.00;6.00;;;;;22.14;100.00;100135.78;5076394;28;45498;-72
2022/09/14 08:14:12;;;;;;;;;7.67;7.00;;;;;22.21;100.00;100141.75;5071349;28;60814;-72
2022/09/14 08:16:39;;;;;;;;;7.33;7.00;;;;;22.29;100.00;100150.34;5076890;28;45360;-74
2022/09/14 08:19:06;;;;;;;;;10.67;8.67;;;;;22.36;100.00;100161.66;5074287;28;46613;-73
2022/09/14 08:21:32;;;;;;;;;8.00;8.00;;;;;22.41;100.00;100157.78;5078156;27;45627;-71
2022/09/14 08:24:01;;;;;;;;;10.33;7.33;;;;;22.48;100.00;100159.25;5077927;27;45498;-71
2022/09/14 08:26:26;;;;;;;;;7.67;7.67;;;;;22.56;100.00;100153.50;5072759;27;45552;-71
2022/09/14 08:28:53;;;;;;;;;11.00;9.67;;;;;22.67;100.00;100163.72;5074189;28;45618;-72
2022/09/14 08:31:20;;;;;;;;;8.33;7.33;;;;;22.79;100.00;100168.47;5057078;28;45624;-72
2022/09/14 08:33:48;;;;;;;;;8.67;7.00;;;;;22.89;100.00;100172.50;5075614;28;45355;-73
2022/09/14 08:36:16;;;;;;;;;8.67;6.33;;;;;22.98;100.00;100172.03;5076306;28;45510;-72
2022/09/14 08:38:42;;;;;;;;;9.33;5.33;;;;;23.05;100.00;100177.09;5068960;28;46380;-73
2022/09/14 08:41:22;;;;;;;;;8.67;7.00;;;;;23.10;100.00;100183.13;5069589;28;45498;-74
2022/09/14 08:43:48;;;;;;;;;7.33;7.33;;;;;23.17;100.00;100177.38;5075564;28;45555;-75
2022/09/14 08:46:25;;;;;;;;;8.33;6.67;;;;;23.24;100.00;100177.91;5074109;28;62857;-72
2022/09/14 08:48:51;;;;;;;;;7.33;6.67;;;;;23.31;100.00;100173.94;5048332;28;46681;-72
2022/09/14 08:51:17;;;;;;;;;8.00;6.00;;;;;23.34;100.00;100178.31;5058336;28;45716;-74
2022/09/14 08:53:43;;;;;;;;;8.00;6.67;;;;;23.27;100.00;100178.59;5075150;27;56242;-74
2022/09/14 08:56:16;;;;;;;;;10.33;6.33;;;;;23.23;100.00;100173.50;5057579;28;45648;-74
2022/09/14 08:58:41;;;;;;;;;8.67;7.00;;;;;23.16;100.00;100175.59;5075132;28;45718;-73
2022/09/14 09:01:27;;;;;;;;;8.67;6.00;;;;;23.14;100.00;100187.41;5073486;28;45407;-75
2022/09/14 09:04:28;;;;;;;;;9.67;7.00;;;;;23.08;100.00;100182.34;5068234;28;46813;-73
2022/09/14 09:07:19;;;;;;;;;8.00;7.00;;;;;23.06;100.00;100181.53;5056222;28;45563;-75
2022/09/14 09:09:44;;;;;;;;;7.00;5.33;;;;;23.06;100.00;100185.09;5074854;28;45968;-73
2022/09/14 09:12:33;;;;;;;;;8.67;6.00;;;;;23.00;100.00;100167.44;5075520;27;45446;-75
2022/09/14 09:15:01;;;;;;;;;7.67;6.00;;;;;23.06;100.00;100173.47;5074218;28;45360;-74
2022/09/14 09:17:39;;;;;;;;;8.00;6.33;;;;;23.11;100.00;100179.47;5041203;28;45484;-75
2022/09/14 09:20:12;;;;;;;;;8.00;6.00;;;;;23.16;100.00;100181.00;5051521;28;45850;-74
2022/09/14 09:22:54;;;;;;;;;8.67;5.00;;;;;23.26;100.00;100184.09;5033370;28;45557;-73
2022/09/14 09:25:23;;;;;;;;;6.67;6.00;;;;;23.38;100.00;100183.44;5029354;28;45538;-75
2022/09/14 09:27:50;;;;;;;;;4.67;4.00;;;;;23.44;100.00;100180.44;5033642;28;45411;-74
2022/09/14 09:30:16;;;;;;;;;5.67;5.67;;;;;23.47;100.00;100179.41;5047130;28;46698;-74
2022/09/14 09:32:41;;;;;;;;;9.00;5.00;;;;;23.48;100.00;100183.84;5052967;28;45380;-76
2022/09/14 09:35:12;;;;;;;;;8.67;6.00;;;;;23.48;100.00;100176.63;5038024;28;45422;-74
2022/09/14 09:37:39;;;;;;;;;7.67;7.67;;;;;23.49;100.00;100177.50;5034358;28;45454;-73
2022/09/14 09:40:30;;;;;;;;;8.00;6.67;;;;;23.50;100.00;100176.56;5035413;28;46646;-74
2022/09/14 09:43:10;;;;;;;;;0.00;0.00;;;;;23.51;100.00;100181.84;5044281;28;45530;-73
2022/09/14 09:46:04;;;;;;;;;5.00;5.00;;;;;23.44;100.00;100179.59;5047814;28;45454;-75
2022/09/14 09:48:39;;;;;;;;;5.00;5.00;;;;;23.53;100.00;100176.38;5051242;28;45452;-75
2022/09/14 09:51:14;;;;;;;;;6.00;4.33;;;;;23.58;100.00;100170.75;5037355;28;46675;-75
2022/09/14 09:54:11;;;;;;;;;5.00;4.33;;;;;23.63;100.00;100179.50;5030602;28;45601;-73
2022/09/14 09:57:10;;;;;;;;;4.67;4.67;;;;;23.68;100.00;100172.03;5038121;28;45543;-75
2022/09/14 09:59:41;;;;;;;;;2.00;2.00;;;;;23.69;100.00;100173.75;5009782;28;45460;-77
2022/09/14 10:02:24;;;;;;;;;3.33;3.33;;;;;23.84;100.00;100169.38;5048195;28;47544;-75
2022/09/14 10:05:08;;;;;;;;;6.00;6.00;;;;;23.91;100.00;100171.66;5052717;28;45522;-75
2022/09/14 10:07:39;;;;;;;;;5.33;5.33;;;;;23.97;100.00;100170.44;5053172;28;46941;-74
2022/09/14 10:10:11;;;;;;;;;3.33;3.33;;;;;24.05;100.00;100165.50;5052207;28;45638;-74
2022/09/14 10:12:45;;;;;;;;;7.33;5.00;;;;;24.13;100.00;100170.47;5052310;28;47544;-77
2022/09/14 10:15:16;;;;;;;;;6.00;3.00;;;;;24.17;100.00;100172.91;5053181;28;45432;-73
2022/09/14 10:17:59;;;;;;;;;3.67;3.67;;;;;24.25;100.00;100177.88;5263877;22;46120;-73
2022/09/14 10:20:25;;;;;;;;;3.33;2.67;;;;;24.27;100.00;100159.78;5023804;28;45435;-72
2022/09/14 10:22:51;;;;;;;;;4.00;4.00;;;;;24.27;100.00;100155.25;5023422;28;68168;-74
2022/09/14 10:25:16;;;;;;;;;4.00;4.00;;;;;24.27;100.00;100154.38;5002130;28;45560;-72
2022/09/14 10:27:54;;;;;;;;;5.00;5.00;;;;;24.28;100.00;100150.72;5021881;28;45470;-73
2022/09/14 10:30:25;;;;;;;;;5.00;4.00;;;;;24.25;100.00;100135.59;5018228;28;45570;-74
2022/09/14 10:32:58;;;;;;;;;4.67;3.00;;;;;24.31;100.00;100146.03;5013197;28;47554;-72
2022/09/14 10:35:46;;;;;;;;;3.33;3.33;;;;;24.37;100.00;100146.66;5014775;28;45375;-72
2022/09/14 10:38:31;;;;;;;;;5.67;3.67;;;;;24.36;100.00;100135.00;4996502;28;45786;-74
2022/09/14 10:41:19;;;;;;;;;6.67;5.00;;;;;24.37;100.00;100134.03;4992428;28;45617;-73
2022/09/14 10:44:09;;;;;;;;;6.00;3.00;;;;;24.44;100.00;100138.13;4992573;28;46742;-74
2022/09/14 10:47:00;;;;;;;;;7.33;4.33;;;;;24.51;100.00;100133.25;4986471;28;45518;-73
2022/09/14 10:49:32;;;;;;;;;3.67;3.00;;;;;24.60;100.00;100131.84;5013095;28;45484;-74
2022/09/14 10:52:19;;;;;;;;;3.67;3.67;;;;;24.70;100.00;100120.41;5010131;28;45517;-73
2022/09/14 10:54:51;;;;;;;;;4.33;3.00;;;;;24.82;100.00;100124.22;5013402;28;47506;-73
2022/09/14 10:57:29;;;;;;;;;2.00;2.00;;;;;24.94;100.00;100122.63;5002756;28;45412;-72
2022/09/14 11:00:04;;;;;;;;;5.00;5.00;;;;;25.07;100.00;100119.13;5023704;28;45595;-73
2022/09/14 11:02:48;;;;;;;;;4.00;3.00;;;;;25.19;100.00;100112.09;5023046;28;45419;-73
2022/09/14 11:05:32;;;;;;;;;5.33;3.00;;;;;25.27;100.00;100107.09;5016169;28;46809;-73
2022/09/14 11:08:28;;;;;;;;;8.00;4.00;;;;;25.39;100.00;100104.59;5014311;28;45473;-73
2022/09/14 11:11:13;;;;;;;;;3.00;3.00;;;;;25.49;100.00;100109.34;5021867;28;45951;-74
2022/09/14 11:13:45;;;;;;;;;3.00;3.00;;;;;25.62;100.00;100104.06;4996026;28;45567;-73
2022/09/14 11:16:32;;;;;;;;;3.00;3.00;;;;;25.77;100.00;100108.50;5018358;28;46560;-72
2022/09/14 11:19:07;;;;;;;;;3.00;3.00;;;;;25.87;100.00;100108.78;5013704;28;45527;-73
2022/09/14 11:22:02;;;;;;;;;4.00;2.00;;;;;25.86;100.00;100113.34;5001223;28;45872;-73
2022/09/14 11:24:39;;;;;;;;;3.00;3.00;;;;;25.88;100.00;100110.53;5002630;28;45475;-73
2022/09/14 11:27:10;;;;;;;;;2.33;2.33;;;;;25.97;100.00;100114.50;4989967;28;47041;-74